Details for Air Canada Jazz at CYYZ




Go Back


Latest METAR
Local Time

CYYZ 220800Z 32012G20KT 15SM BKN035 12/06 A3013 RMK SC5 SLP205
22/09/2018, 04:51:57

Description
Results
Air Canada Jazz Logo
Number of Pilots based at CYYZ
0 Pilots Based here
Number of Air Canada Jazz Flights Departed from CYYZ
0 Flights Departed
Number of Air Canada Jazz Flights Arrived at CYYZ
0 Flights Arrived
Number of Air Canada Jazz Schedules Departing from CYYZ
62 Schedules
Number of Air Canada Jazz Schedules Arriving at CYYZ
71 Schedules
Number of Air Canada Jazz Schedules Departing from CYYZ availible today
49 Schedules Today
Number of Air Canada Jazz Schedules Arriving at CYYZ availible today
54 Schedules Today
Average Landing Rate at CYYZ
-259 fpm
Air Canada Jazz Average Landing Rate at CYYZ
0 fpm
Total Fuel Purchased at CYYZ by Air Canada Jazz
0.00 kgs / 0.00 lbs

Pilots Based at CYYZ


Pilot ID
Pilot Name
Pilot Rank
No. of Flights
No. of Flying Hours
There are no pilots assigned to this hub!   Will you be the first?
Content